Time;durP1;ratioP1;P1;durP2;ratioP2;P2;SDS_P1;SDS_P2;PMS_P1;PMS_P2;Temp;Humidity;BMP_temperature;BMP_pressure;BME280_temperature;BME280_humidity;BME280_pressure;Samples;Min_cycle;Max_cycle;Signal;HPM_P1;HPM_P2
2023/12/19 00:00:12;;;;;;;25.00;9.87;;;;;;;3.78;78.85;98057.63;5065177;28;20282;-74
2023/12/19 00:02:39;;;;;;;27.97;9.57;;;;;;;3.87;78.73;98065.28;5066921;28;20233;-72
2023/12/19 00:05:09;;;;;;;32.07;11.07;;;;;;;3.79;78.52;98070.41;5065301;28;20290;-75
2023/12/19 00:07:37;;;;;;;31.73;11.33;;;;;;;3.91;78.90;98072.13;5066786;28;20839;-74
2023/12/19 00:10:05;;;;;;;22.07;8.43;;;;;;;3.77;79.11;98058.50;5065668;28;20193;-76
2023/12/19 00:12:32;;;;;;;24.60;8.80;;;;;;;3.84;79.22;98065.28;5065725;28;20785;-73
2023/12/19 00:15:00;;;;;;;17.27;7.03;;;;;;;3.85;79.36;98049.06;5066530;28;20201;-77
2023/12/19 00:17:30;;;;;;;27.27;9.47;;;;;;;3.60;79.20;98015.00;5066398;28;20839;-74
2023/12/19 00:19:57;;;;;;;22.90;8.33;;;;;;;3.88;79.26;98064.41;5066937;28;20208;-73
2023/12/19 00:22:25;;;;;;;25.90;8.40;;;;;;;3.91;79.69;98062.72;5065381;28;20280;-73
2023/12/19 00:24:52;;;;;;;26.10;8.63;;;;;;;3.89;79.77;98071.25;5066836;28;20249;-74
2023/12/19 00:27:19;;;;;;;21.30;7.47;;;;;;;3.82;80.77;98067.88;5065145;28;20201;-74
2023/12/19 00:29:47;;;;;;;26.73;8.80;;;;;;;3.81;80.06;98071.25;5064799;28;20624;-74
2023/12/19 00:32:14;;;;;;;20.17;6.73;;;;;;;3.74;80.35;98078.97;5065859;28;20196;-73
2023/12/19 00:34:41;;;;;;;28.13;9.07;;;;;;;3.66;81.09;98079.00;5065072;28;20205;-73
2023/12/19 00:37:08;;;;;;;24.07;8.53;;;;;;;3.68;81.07;98077.31;5066261;28;20186;-73
2023/12/19 00:39:38;;;;;;;28.60;9.10;;;;;;;3.77;80.42;98063.63;5064562;28;20193;-72
2023/12/19 00:42:05;;;;;;;30.40;10.10;;;;;;;3.59;80.13;98017.53;5066084;28;20320;-73
2023/12/19 00:44:36;;;;;;;27.10;9.27;;;;;;;3.87;80.20;98060.16;5064821;28;20190;-73
2023/12/19 00:47:03;;;;;;;27.70;9.33;;;;;;;3.91;80.05;98065.28;5066377;28;20588;-74
2023/12/19 00:49:30;;;;;;;22.00;8.43;;;;;;;3.91;79.57;98041.38;5064205;28;20574;-72
2023/12/19 00:52:00;;;;;;;27.20;9.60;;;;;;;4.19;78.95;98060.03;5066596;28;20305;-74
2023/12/19 00:54:28;;;;;;;31.30;9.83;;;;;;;4.24;78.84;98060.88;5068887;28;20276;-73
2023/12/19 00:56:55;;;;;;;26.97;9.43;;;;;;;4.16;78.59;98047.25;5068733;28;20201;-73
2023/12/19 00:59:22;;;;;;;27.07;8.90;;;;;;;4.25;78.32;98052.31;5069923;28;20602;-75
2023/12/19 01:01:49;;;;;;;39.33;11.43;;;;;;;4.24;78.00;98051.47;5068593;28;20659;-75
2023/12/19 01:04:17;;;;;;;40.37;12.37;;;;;;;4.36;77.69;98055.69;5070148;28;20200;-74
2023/12/19 01:06:45;;;;;;;30.27;11.53;;;;;;;4.29;77.95;98046.31;5069174;28;20217;-74
2023/12/19 01:09:13;;;;;;;29.47;10.73;;;;;;;4.35;77.17;98054.81;5068663;28;20190;-73
2023/12/19 01:11:40;;;;;;;31.80;11.07;;;;;;;4.34;77.57;98045.44;5069666;28;20201;-74
2023/12/19 01:14:07;;;;;;;32.73;11.17;;;;;;;4.25;77.27;98042.91;5068131;28;20224;-73
2023/12/19 01:16:34;;;;;;;36.17;12.07;;;;;;;4.02;77.08;98019.09;5069587;28;20217;-74
2023/12/19 01:19:03;;;;;;;32.10;10.90;;;;;;;3.86;77.88;98031.13;5067989;28;20204;-73
2023/12/19 01:21:30;;;;;;;36.43;11.03;;;;;;;3.98;77.53;98035.34;5069290;28;20784;-72
2023/12/19 01:23:57;;;;;;;27.50;10.07;;;;;;;3.82;77.96;98029.44;5067336;28;20205;-73
2023/12/19 01:26:24;;;;;;;32.37;10.40;;;;;;;3.62;78.27;98035.47;5068488;28;20194;-74
2023/12/19 01:28:56;;;;;;;31.00;10.17;;;;;;;3.45;79.11;98032.97;5069351;28;20208;-72
2023/12/19 01:31:23;;;;;;;33.30;9.97;;;;;;;3.42;79.36;98034.69;5067457;28;20259;-73
2023/12/19 01:33:52;;;;;;;33.07;10.43;;;;;;;3.26;79.91;98026.16;5068892;28;20751;-73
2023/12/19 01:36:19;;;;;;;29.97;9.73;;;;;;;3.36;80.35;98037.25;5067314;28;20243;-73
2023/12/19 01:38:46;;;;;;;31.07;9.40;;;;;;;3.26;80.69;98032.13;5068767;28;20192;-72
2023/12/19 01:41:13;;;;;;;22.33;8.63;;;;;;;3.25;80.56;98006.56;5068240;28;20296;-73
2023/12/19 01:43:40;;;;;;;28.03;8.63;;;;;;;3.33;81.17;98037.25;5067895;28;20284;-73
2023/12/19 01:46:14;;;;;;;25.17;8.23;;;;;;;3.48;80.89;98034.66;5068773;28;20223;-74
2023/12/19 01:48:42;;;;;;;26.77;8.70;;;;;;;3.41;81.03;98026.13;5067092;28;20235;-73
2023/12/19 01:51:12;;;;;;;26.93;8.67;;;;;;;3.17;80.33;97972.44;5068585;28;20205;-74
2023/12/19 01:53:44;;;;;;;27.90;10.03;;;;;;;3.54;80.26;98043.19;5065483;28;20559;-72
2023/12/19 01:56:15;;;;;;;24.97;8.80;;;;;;;3.55;79.57;98020.97;5068664;28;20212;-73
2023/12/19 01:58:43;;;;;;;20.57;7.67;;;;;;;3.53;80.10;98026.09;5067759;28;20212;-72
2023/12/19 02:01:12;;;;;;;28.47;8.90;;;;;;;3.32;80.96;98017.63;5067124;28;20193;-73
2023/12/19 02:03:41;;;;;;;23.20;7.83;;;;;;;3.17;81.32;97998.88;5068001;28;20255;-72
2023/12/19 02:06:09;;;;;;;28.20;8.90;;;;;;;3.41;81.27;98017.59;5066523;28;20262;-73
2023/12/19 02:08:36;;;;;;;25.80;8.40;;;;;;;3.28;81.19;98002.28;5068280;28;20194;-73
2023/12/19 02:11:04;;;;;;;26.90;8.63;;;;;;;3.39;81.49;98009.94;5065551;28;20250;-73
2023/12/19 02:13:31;;;;;;;28.83;9.50;;;;;;;3.41;80.78;98017.59;5068285;28;20199;-71
2023/12/19 02:15:58;;;;;;;20.43;7.37;;;;;;;3.40;81.06;98015.91;5067998;28;20234;-74
2023/12/19 02:18:25;;;;;;;27.43;8.30;;;;;;;3.50;80.59;98028.69;5067334;28;20538;-73
2023/12/19 02:20:54;;;;;;;22.43;7.70;;;;;;;3.62;80.52;98012.44;5067859;28;20192;-73
2023/12/19 02:23:21;;;;;;;25.73;8.47;;;;;;;3.77;80.44;98002.16;5066543;28;20274;-73
2023/12/19 02:25:50;;;;;;;23.43;8.37;;;;;;;3.93;79.23;97999.50;5068117;28;20232;-73
2023/12/19 02:28:17;;;;;;;25.03;8.43;;;;;;;3.82;79.39;98000.41;5066555;28;20219;-74
2023/12/19 02:30:44;;;;;;;25.10;8.47;;;;;;;3.84;79.04;97998.69;5067843;28;20208;-74
2023/12/19 02:33:12;;;;;;;21.40;7.43;;;;;;;3.91;79.18;97992.69;5067271;28;20584;-74
2023/12/19 02:35:39;;;;;;;27.00;8.63;;;;;;;3.98;78.65;97996.91;5067122;28;20641;-72
2023/12/19 02:38:06;;;;;;;25.83;8.70;;;;;;;3.90;79.10;97983.28;5068218;28;20287;-72
2023/12/19 02:40:34;;;;;;;34.60;10.57;;;;;;;3.96;78.42;97994.38;5066105;28;20192;-73
2023/12/19 02:43:01;;;;;;;28.77;8.90;;;;;;;3.68;78.75;97966.31;5067611;28;21219;-74
2023/12/19 02:45:31;;;;;;;28.83;9.53;;;;;;;3.93;78.24;97983.28;5066045;28;20670;-73
2023/12/19 02:47:59;;;;;;;31.03;10.30;;;;;;;4.09;77.94;98001.16;5067365;28;20683;-73
2023/12/19 02:50:26;;;;;;;23.90;8.20;;;;;;;3.97;77.98;97974.72;5067023;28;20185;-72
2023/12/19 02:52:53;;;;;;;30.40;9.57;;;;;;;4.01;78.01;97991.78;5066352;28;20369;-75
2023/12/19 02:55:20;;;;;;;23.97;7.87;;;;;;;4.01;78.18;97991.78;5067371;28;20186;-73
2023/12/19 02:57:47;;;;;;;27.37;8.87;;;;;;;4.07;77.92;97986.63;5065998;28;20276;-74
2023/12/19 03:00:15;;;;;;;28.60;8.43;;;;;;;3.84;77.26;97932.94;5067722;28;20642;-73
2023/12/19 03:02:43;;;;;;;30.60;9.40;;;;;;;4.13;77.46;97987.44;5065701;28;20236;-73
2023/12/19 03:05:11;;;;;;;25.10;8.20;;;;;;;4.13;77.26;98001.97;5065706;28;20251;-73
2023/12/19 03:07:38;;;;;;;23.90;7.83;;;;;;;4.13;76.92;97991.72;5066639;28;20209;-73
2023/12/19 03:10:08;;;;;;;30.90;8.77;;;;;;;4.14;77.80;97988.31;5064962;28;20726;-73
2023/12/19 03:12:36;;;;;;;27.63;8.60;;;;;;;4.24;77.01;97984.84;5066908;28;20605;-73
2023/12/19 03:15:03;;;;;;;26.37;8.47;;;;;;;4.31;76.56;97988.22;5064564;28;20339;-73
2023/12/19 03:17:31;;;;;;;28.57;8.27;;;;;;;4.32;76.32;97980.50;5066821;28;20195;-73
2023/12/19 03:19:58;;;;;;;25.77;7.40;;;;;;;4.45;76.02;97978.72;5065708;28;20185;-73
2023/12/19 03:22:25;;;;;;;30.50;8.67;;;;;;;4.42;75.90;97977.03;5066952;28;20254;-73
2023/12/19 03:24:52;;;;;;;16.47;5.87;;;;;;;4.51;75.99;97974.41;5066260;28;20197;-74
2023/12/19 03:27:19;;;;;;;31.07;8.77;;;;;;;4.44;75.58;97962.47;5065999;28;20193;-72
2023/12/19 03:29:46;;;;;;;24.23;7.27;;;;;;;4.40;75.77;97945.41;5066611;28;20285;-74
2023/12/19 03:32:13;;;;;;;26.77;7.77;;;;;;;4.47;75.22;97970.13;5065301;28;20688;-73
2023/12/19 03:34:40;;;;;;;33.93;9.07;;;;;;;4.48;75.85;97976.13;5065497;28;20247;-73
2023/12/19 03:37:07;;;;;;;24.40;8.23;;;;;;;4.18;76.21;97972.06;5063971;28;20194;-74
2023/12/19 03:39:34;;;;;;;29.50;8.77;;;;;;;4.22;76.67;97978.84;5066840;28;20190;-74
2023/12/19 03:42:02;;;;;;;23.40;8.00;;;;;;;4.11;76.44;97972.94;5065940;28;20246;-75
2023/12/19 03:44:41;;;;;;;31.60;9.80;;;;;;;4.12;76.19;97979.78;5065857;28;20209;-73
2023/12/19 03:47:12;;;;;;;24.83;8.43;;;;;;;4.17;75.89;97977.16;5066792;28;20191;-73
2023/12/19 03:49:40;;;;;;;26.47;9.07;;;;;;;4.05;76.22;97975.53;5066678;28;20187;-73
2023/12/19 03:52:10;;;;;;;24.07;8.20;;;;;;;4.07;75.85;97968.69;5067626;28;20242;-74
2023/12/19 03:54:37;;;;;;;23.10;7.90;;;;;;;4.14;76.13;97973.75;5068150;28;20201;-73
2023/12/19 03:57:04;;;;;;;22.60;7.73;;;;;;;4.05;76.59;97967.84;5070456;28;20583;-73
2023/12/19 03:59:31;;;;;;;19.07;6.77;;;;;;;4.17;76.22;97960.09;5066220;28;20196;-74
2023/12/19 04:01:59;;;;;;;26.63;8.90;;;;;;;4.04;76.47;97966.13;5065998;28;20779;-75
2023/12/19 04:04:27;;;;;;;25.17;7.87;;;;;;;3.81;76.81;97956.00;5066776;28;20201;-74
2023/12/19 04:06:54;;;;;;;28.03;8.50;;;;;;;3.99;76.59;97967.88;5065012;28;20193;-73
2023/12/19 04:09:22;;;;;;;24.43;7.63;;;;;;;3.89;76.51;97966.22;5066259;28;20220;-73
2023/12/19 04:11:49;;;;;;;26.87;8.53;;;;;;;3.81;76.60;97967.97;5064785;28;20205;-74
2023/12/19 04:14:17;;;;;;;28.10;8.50;;;;;;;3.90;76.63;97957.66;5066576;28;20287;-74
2023/12/19 04:16:44;;;;;;;23.70;7.27;;;;;;;3.79;76.98;97955.16;5064002;28;20205;-74
2023/12/19 04:19:11;;;;;;;32.90;8.47;;;;;;;3.81;76.92;97962.84;5065552;28;20292;-73
2023/12/19 04:21:40;;;;;;;37.17;12.37;;;;;;;3.71;77.09;97967.13;5066033;28;20190;-72
2023/12/19 04:24:07;;;;;;;24.20;8.50;;;;;;;3.45;77.84;97955.28;5063346;28;20213;-74
2023/12/19 04:26:34;;;;;;;20.23;6.80;;;;;;;3.37;78.26;97967.25;5069127;28;20215;-75
2023/12/19 04:29:02;;;;;;;25.33;7.77;;;;;;;3.32;79.03;97966.44;5069640;28;20198;-74
2023/12/19 04:31:29;;;;;;;22.80;6.93;;;;;;;2.98;79.85;97948.59;5070309;28;21011;-73
2023/12/19 04:33:56;;;;;;;22.07;6.93;;;;;;;3.14;79.48;97968.19;5069241;28;20202;-71
2023/12/19 04:36:28;;;;;;;26.50;8.27;;;;;;;3.19;79.50;97953.66;5069300;28;20178;-76
2023/12/19 04:38:55;;;;;;;21.60;6.73;;;;;;;3.36;79.42;97970.69;5069960;28;20210;-73
2023/12/19 04:41:22;;;;;;;26.70;7.67;;;;;;;3.49;79.20;97972.34;5068569;28;20197;-72
2023/12/19 04:43:49;;;;;;;25.17;7.30;;;;;;;3.51;78.49;97973.19;5070095;28;20275;-73
2023/12/19 04:46:16;;;;;;;24.93;7.67;;;;;;;3.44;78.68;97949.34;5068374;28;20199;-73
2023/12/19 04:48:43;;;;;;;27.97;8.73;;;;;;;3.72;77.73;97975.69;5069693;28;20204;-74
2023/12/19 04:51:22;;;;;;;19.13;7.13;;;;;;;3.56;78.08;97972.34;5068965;28;20185;-73
2023/12/19 04:53:49;;;;;;;26.17;7.97;;;;;;;3.54;78.09;97983.44;5068706;28;20923;-73
2023/12/19 04:56:17;;;;;;;23.13;8.03;;;;;;;3.57;78.33;97983.41;5069899;28;20316;-73
2023/12/19 04:58:46;;;;;;;25.97;7.73;;;;;;;3.50;78.25;97966.38;5068267;28;20232;-73
2023/12/19 05:01:13;;;;;;;25.83;8.50;;;;;;;3.62;78.54;97980.00;5069862;28;20282;-74
2023/12/19 05:03:41;;;;;;;25.03;7.90;;;;;;;3.46;78.36;97962.13;5068121;28;20237;-74
2023/12/19 05:06:16;;;;;;;24.70;8.10;;;;;;;3.40;78.61;97964.72;5069628;28;20204;-74
2023/12/19 05:08:50;;;;;;;17.77;6.23;;;;;;;3.41;79.12;97984.31;5068861;28;20197;-73
2023/12/19 05:11:17;;;;;;;32.73;8.33;;;;;;;3.49;79.07;97982.59;5068273;28;20189;-74
2023/12/19 05:13:44;;;;;;;21.20;7.33;;;;;;;3.43;79.39;97975.78;5069296;28;20189;-73
2023/12/19 05:16:16;;;;;;;32.70;10.70;;;;;;;3.36;78.98;97942.53;5068037;28;20200;-74
2023/12/19 05:18:44;;;;;;;24.53;9.03;;;;;;;3.55;78.90;97987.69;5069629;28;20284;-74
2023/12/19 05:21:12;;;;;;;22.47;7.77;;;;;;;3.56;79.00;97985.16;5066897;28;20197;-73
2023/12/19 05:23:40;;;;;;;21.70;6.90;;;;;;;3.64;78.17;97992.78;5069653;28;20605;-73
2023/12/19 05:26:08;;;;;;;20.27;6.63;;;;;;;3.72;78.09;97985.94;5068921;28;20204;-74
2023/12/19 05:28:36;;;;;;;21.50;6.20;;;;;;;3.76;78.18;97987.63;5066639;28;20197;-74
2023/12/19 05:31:03;;;;;;;20.53;6.13;;;;;;;3.78;77.93;97984.19;5069446;28;20235;-74
2023/12/19 05:33:34;;;;;;;25.93;7.77;;;;;;;3.81;77.41;97983.34;5067698;28;20928;-73
2023/12/19 05:36:02;;;;;;;29.60;8.97;;;;;;;3.71;77.46;97971.44;5069245;28;20198;-74
2023/12/19 05:38:31;;;;;;;34.90;11.07;;;;;;;3.78;76.89;97973.94;5066809;28;20224;-73
2023/12/19 05:40:59;;;;;;;39.83;13.20;;;;;;;3.84;77.21;97993.56;5068949;28;20189;-72
2023/12/19 05:43:26;;;;;;;31.70;11.83;;;;;;;3.91;76.33;97990.13;5068562;28;20220;-74
2023/12/19 05:45:53;;;;;;;43.70;14.70;;;;;;;3.97;76.19;97990.09;5066967;28;20189;-74
2023/12/19 05:48:23;;;;;;;30.30;11.07;;;;;;;3.80;76.08;97981.63;5068214;28;20204;-72
2023/12/19 05:50:51;;;;;;;35.20;11.73;;;;;;;3.57;76.02;97968.03;5067526;28;20368;-74
2023/12/19 05:53:19;;;;;;;33.67;11.00;;;;;;;3.05;76.21;97901.66;5068629;28;20218;-74
2023/12/19 05:55:47;;;;;;;31.13;11.67;;;;;;;3.38;76.69;97987.72;5067396;28;20197;-74
2023/12/19 05:58:14;;;;;;;38.57;13.03;;;;;;;3.21;78.06;97966.47;5068538;28;20291;-74
2023/12/19 06:00:41;;;;;;;22.33;11.67;;;;;;;3.25;77.85;97974.13;5068304;28;20300;-75
2023/12/19 06:03:09;;;;;;;50.67;16.17;;;;;;;3.36;77.62;97983.50;5067424;28;20219;-74
2023/12/19 06:05:39;;;;;;;37.60;15.37;;;;;;;3.44;77.50;97992.88;5068736;28;20223;-75
2023/12/19 06:08:07;;;;;;;45.67;19.20;;;;;;;3.41;77.85;97997.97;5065833;28;20657;-76
2023/12/19 06:10:34;;;;;;;49.57;19.50;;;;;;;3.33;77.78;97973.25;5068818;28;20186;-76
2023/12/19 06:13:02;;;;;;;41.03;16.27;;;;;;;3.54;76.79;97993.69;5065874;28;20229;-74
2023/12/19 06:15:29;;;;;;;41.40;15.97;;;;;;;3.37;76.37;97988.59;5066835;28;20258;-72
2023/12/19 06:17:56;;;;;;;35.40;13.13;;;;;;;3.27;76.76;97980.09;5068093;28;20228;-75
2023/12/19 06:20:23;;;;;;;30.87;11.67;;;;;;;3.40;77.15;97995.44;5067722;28;20515;-71
2023/12/19 06:22:50;;;;;;;27.60;10.17;;;;;;;3.58;77.07;97995.38;5068190;28;20945;-71
2023/12/19 06:25:17;;;;;;;39.93;11.87;;;;;;;3.75;76.46;97997.00;5065494;28;20271;-70
2023/12/19 06:27:45;;;;;;;34.93;10.80;;;;;;;3.77;76.09;97994.47;5068008;28;20194;-74
2023/12/19 06:30:13;;;;;;;28.07;9.93;;;;;;;3.95;75.31;98010.59;5066717;28;20201;-75
2023/12/19 06:32:54;;;;;;;22.87;8.47;;;;;;;4.09;75.08;98015.66;5068002;28;20663;-74
2023/12/19 06:35:22;;;;;;;29.30;9.73;;;;;;;3.95;74.80;97984.13;5067620;28;20181;-74
2023/12/19 06:37:49;;;;;;;30.60;11.83;;;;;;;4.12;74.61;98008.78;5066704;28;20317;-75
2023/12/19 06:40:17;;;;;;;33.17;11.70;;;;;;;4.19;74.05;98004.50;5067091;28;20205;-75
2023/12/19 06:42:44;;;;;;;34.47;12.70;;;;;;;3.90;74.59;97994.38;5066540;28;20213;-74
2023/12/19 06:45:12;;;;;;;42.33;16.23;;;;;;;3.96;74.55;98004.59;5066801;28;20277;-74
2023/12/19 06:47:40;;;;;;;42.43;15.00;;;;;;;3.87;75.14;98003.81;5066607;28;20238;-75
2023/12/19 06:50:08;;;;;;;34.13;12.77;;;;;;;3.70;75.31;97990.22;5067741;28;20198;-72
2023/12/19 06:52:35;;;;;;;23.00;9.53;;;;;;;3.70;75.80;98011.56;5049009;28;20316;-77
2023/12/19 06:55:03;;;;;;;30.93;11.23;;;;;;;3.74;76.48;97994.47;5066520;28;20193;-75
2023/12/19 06:57:33;;;;;;;37.50;12.67;;;;;;;4.09;75.69;97987.47;5067820;28;20663;-75
2023/12/19 07:00:00;;;;;;;45.63;15.60;;;;;;;4.24;75.20;97989.97;5064288;28;20201;-72
2023/12/19 07:02:31;;;;;;;35.60;12.30;;;;;;;4.25;74.95;98016.41;5065641;28;20230;-74
2023/12/19 07:04:58;;;;;;;34.20;11.90;;;;;;;4.14;75.66;97999.38;5065077;28;20705;-74
2023/12/19 07:07:27;;;;;;;34.83;12.53;;;;;;;4.37;75.29;98009.50;5067261;28;20291;-75
2023/12/19 07:09:54;;;;;;;26.03;10.90;;;;;;;4.31;75.85;98011.28;5066451;28;20707;-76
2023/12/19 07:12:23;;;;;;;33.83;12.77;;;;;;;4.28;76.83;98011.28;5065367;28;20290;-73
2023/12/19 07:14:50;;;;;;;35.07;12.20;;;;;;;4.49;76.50;98009.44;5072470;28;20866;-73
2023/12/19 07:17:17;;;;;;;35.27;12.37;;;;;;;4.60;76.25;97999.97;5069828;28;20205;-74
2023/12/19 07:20:24;;;;;;;28.20;10.97;;;;;;;4.75;76.31;98011.84;5057020;28;20193;-77
2023/12/19 07:23:45;;;;;;;30.93;11.00;;;;;;;4.85;75.00;98008.34;5051319;28;20237;-76
2023/12/19 07:27:06;;;;;;;29.23;11.33;;;;;;;4.71;75.92;97992.19;5045400;28;20600;-76
2023/12/19 07:30:27;;;;;;;30.30;10.67;;;;;;;4.43;76.11;97917.16;5045797;28;20190;-74
2023/12/19 07:33:48;;;;;;;20.93;8.77;;;;;;;5.16;74.58;98001.22;5045076;28;20198;-73
2023/12/19 07:37:09;;;;;;;29.90;10.87;;;;;;;5.39;74.29;98004.44;5029860;28;20221;-73
2023/12/19 07:40:31;;;;;;;31.70;10.80;;;;;;;5.49;75.53;98006.03;5045273;28;20191;-76
2023/12/19 07:43:52;;;;;;;52.43;17.97;;;;;;;5.68;74.99;97994.69;5042332;28;20227;-75
2023/12/19 07:47:14;;;;;;;35.13;13.73;;;;;;;5.82;74.61;97992.81;5043549;28;20234;-72
2023/12/19 07:50:35;;;;;;;36.87;12.40;;;;;;;6.04;73.98;97996.03;5045477;28;20229;-74
2023/12/19 07:53:56;;;;;;;30.97;12.77;;;;;;;6.26;73.73;97990.56;5045931;28;20325;-74
2023/12/19 07:57:20;;;;;;;42.63;15.60;;;;;;;6.55;73.31;97992.72;5044531;28;20194;-75
2023/12/19 08:00:42;;;;;;;38.10;14.10;;;;;;;6.09;73.05;97923.09;5053683;28;20186;-72
2023/12/19 08:04:06;;;;;;;43.13;15.40;;;;;;;6.71;72.42;97985.63;5072314;28;20398;-73
2023/12/19 08:07:27;;;;;;;44.97;17.63;;;;;;;6.84;72.69;97995.69;5058690;28;20196;-76
2023/12/19 08:10:48;;;;;;;34.50;15.80;;;;;;;6.86;72.02;97990.53;5044753;28;20300;-73
2023/12/19 08:14:10;;;;;;;46.53;17.97;;;;;;;7.05;71.52;97986.75;5044165;28;20197;-72
2023/12/19 08:17:31;;;;;;;48.00;19.07;;;;;;;7.02;71.53;97968.81;5044955;28;20196;-73
2023/12/19 08:20:52;;;;;;;43.13;16.10;;;;;;;7.29;70.08;97974.31;5045765;28;20589;-75
2023/12/19 08:24:13;;;;;;;31.80;14.63;;;;;;;7.53;69.17;97983.34;5043509;28;20229;-76
2023/12/19 08:27:35;;;;;;;42.40;16.33;;;;;;;7.58;69.50;97983.25;5042098;28;20291;-73
2023/12/19 08:30:56;;;;;;;39.93;15.53;;;;;;;7.62;69.32;97980.59;5056999;28;20220;-74
2023/12/19 08:34:18;;;;;;;37.30;15.07;;;;;;;7.87;68.47;97971.47;5045602;28;20580;-75
2023/12/19 08:37:42;;;;;;;35.37;14.90;;;;;;;8.00;68.62;97972.94;5030123;28;20200;-75
2023/12/19 08:41:02;;;;;;;34.60;14.70;;;;;;;8.17;68.53;97968.28;5045327;28;20203;-75
2023/12/19 08:44:23;;;;;;;36.60;16.70;;;;;;;8.24;67.22;97966.41;5057667;28;20281;-77
2023/12/19 08:47:44;;;;;;;44.97;17.70;;;;;;;8.37;66.30;97962.69;5047547;28;20190;-76
2023/12/19 08:51:06;;;;;;;42.47;14.73;;;;;;;8.47;66.02;97953.03;5045217;28;20224;-74
2023/12/19 08:54:26;;;;;;;35.80;12.80;;;;;;;8.55;65.47;97959.69;5047298;28;20230;-77
2023/12/19 08:57:47;;;;;;;37.90;13.40;;;;;;;8.44;65.81;97935.88;5062578;28;20186;-73
2023/12/19 09:01:09;;;;;;;42.70;15.30;;;;;;;8.49;65.57;97902.22;5061638;28;20212;-74
2023/12/19 09:04:30;;;;;;;35.07;12.77;;;;;;;8.87;64.91;97933.97;5065008;28;20220;-75
2023/12/19 09:07:50;;;;;;;28.27;9.90;;;;;;;9.04;63.76;97928.38;5065573;28;20228;-76
2023/12/19 09:11:12;;;;;;;26.40;9.63;;;;;;;9.17;63.71;97919.41;5063431;28;20937;-74
2023/12/19 09:14:33;;;;;;;33.70;11.10;;;;;;;9.41;63.87;97913.63;5064447;28;20194;-73
2023/12/19 09:17:54;;;;;;;31.53;10.60;;;;;;;9.68;62.50;97905.09;5069049;28;20208;-73
2023/12/19 09:21:15;;;;;;;33.20;10.50;;;;;;;9.96;62.79;97912.03;5066442;28;20283;-79
2023/12/19 09:23:57;;;;;;;22.03;8.27;;;;;;;10.00;62.07;97890.34;5069014;28;20217;-76
2023/12/19 09:26:24;;;;;;;28.13;8.90;;;;;;;9.61;61.26;97825.97;5079246;28;20197;-78
2023/12/19 09:28:54;;;;;;;29.37;9.13;;;;;;;9.98;61.13;97881.78;5071512;28;20251;-72
2023/12/19 09:31:21;;;;;;;31.20;10.43;;;;;;;10.19;61.81;97883.75;5067288;28;20739;-76
2023/12/19 09:34:09;;;;;;;30.17;10.53;;;;;;;10.12;62.02;97872.75;5069057;28;20198;-74
2023/12/19 09:36:45;;;;;;;17.40;7.20;;;;;;;10.40;60.69;97868.41;5069473;28;20753;-75
2023/12/19 09:39:29;;;;;;;20.57;6.50;;;;;;;10.69;59.29;97877.84;5070308;28;20278;-79
2023/12/19 09:42:03;;;;;;;23.27;6.27;;;;;;;10.78;59.34;97866.34;5070438;28;20224;-75
2023/12/19 09:44:37;;;;;;;39.50;14.50;;;;;;;10.75;59.00;97851.72;5065237;28;20314;-77
2023/12/19 09:47:04;;;;;;;28.67;10.93;;;;;;;10.77;58.26;97834.38;5068422;28;20727;-71
2023/12/19 09:49:39;;;;;;;25.53;8.97;;;;;;;11.04;55.74;97848.16;5065156;28;20193;-77
2023/12/19 09:52:09;;;;;;;34.90;10.70;;;;;;;11.22;55.14;97857.88;5066001;28;20318;-76
2023/12/19 09:54:38;;;;;;;29.17;10.17;;;;;;;11.14;54.45;97828.78;5067789;28;20201;-75
2023/12/19 09:57:08;;;;;;;30.90;9.07;;;;;;;11.30;54.80;97846.31;5065393;28;20201;-75
2023/12/19 09:59:36;;;;;;;32.30;11.43;;;;;;;11.29;54.55;97828.25;5066593;28;20912;-76
2023/12/19 10:02:13;;;;;;;34.40;13.27;;;;;;;11.18;54.53;97789.72;5049529;28;20708;-74
2023/12/19 10:04:41;;;;;;;32.47;10.63;;;;;;;11.58;53.28;97833.19;5067426;28;20844;-74
2023/12/19 10:07:09;;;;;;;22.40;7.60;;;;;;;11.63;52.50;97820.03;5051018;28;20217;-76
2023/12/19 10:09:56;;;;;;;35.83;9.47;;;;;;;11.58;52.84;97822.00;5073282;28;20203;-71
2023/12/19 10:12:27;;;;;;;22.13;6.67;;;;;;;11.85;52.43;97823.56;5068909;28;20209;-74
2023/12/19 10:15:13;;;;;;;29.47;9.93;;;;;;;12.11;51.76;97828.59;5066805;28;20195;-74
2023/12/19 10:18:03;;;;;;;42.63;12.07;;;;;;;12.18;51.81;97823.09;5068381;28;20234;-72
2023/12/19 10:20:32;;;;;;;26.60;9.33;;;;;;;12.11;52.58;97821.66;5065960;28;20199;-72
2023/12/19 10:23:03;;;;;;;34.77;11.27;;;;;;;11.93;51.63;97791.22;5065262;28;20712;-74
2023/12/19 10:25:33;;;;;;;25.43;8.83;;;;;;;12.06;51.84;97778.59;5067948;28;20244;-71
2023/12/19 10:28:13;;;;;;;31.90;10.83;;;;;;;12.01;51.99;97772.75;5064498;28;20205;-76
2023/12/19 10:30:45;;;;;;;41.90;13.43;;;;;;;12.23;53.40;97807.34;5067696;28;20217;-75
2023/12/19 10:33:14;;;;;;;42.00;13.23;;;;;;;12.17;52.08;97773.81;5066283;28;20710;-76
2023/12/19 10:35:45;;;;;;;37.47;12.23;;;;;;;12.47;51.93;97797.72;5066728;28;20278;-75
2023/12/19 10:38:13;;;;;;;33.73;11.73;;;;;;;12.55;51.60;97793.06;5082951;28;20192;-74
2023/12/19 10:40:41;;;;;;;40.57;11.20;;;;;;;12.16;51.36;97715.00;5079442;28;20254;-75
2023/12/19 10:43:10;;;;;;;40.90;11.20;;;;;;;12.67;50.54;97789.94;5069045;28;20219;-75
2023/12/19 10:45:39;;;;;;;35.30;10.87;;;;;;;12.41;49.75;97746.00;5066098;28;20228;-75
2023/12/19 10:48:07;;;;;;;26.00;8.77;;;;;;;12.14;49.89;97681.31;5066170;28;20256;-77
2023/12/19 10:50:35;;;;;;;27.97;7.90;;;;;;;12.70;49.25;97754.25;5082560;28;20182;-73
2023/12/19 10:53:05;;;;;;;24.77;8.73;;;;;;;12.89;48.06;97762.97;5083486;28;20232;-76
2023/12/19 10:55:41;;;;;;;34.20;9.93;;;;;;;13.06;47.52;97767.47;5068263;28;20265;-76
2023/12/19 10:58:17;;;;;;;34.03;9.57;;;;;;;13.01;47.94;97759.81;5066641;28;20299;-76
2023/12/19 11:00:55;;;;;;;31.57;10.43;;;;;;;13.16;47.91;97757.47;5067556;28;20202;-72
2023/12/19 11:03:32;;;;;;;34.97;9.83;;;;;;;13.00;46.44;97713.09;5067317;28;20246;-76
2023/12/19 11:06:05;;;;;;;32.67;9.13;;;;;;;13.19;46.43;97745.19;5067555;28;20720;-74
2023/12/19 11:08:36;;;;;;;36.57;9.43;;;;;;;13.17;46.16;97743.59;5048979;28;20199;-74
2023/12/19 11:11:23;;;;;;;30.93;8.53;;;;;;;13.20;45.52;97717.41;5065973;28;20199;-74
2023/12/19 11:13:53;;;;;;;37.43;10.70;;;;;;;13.26;45.91;97730.16;5067141;28;20562;-76
2023/12/19 11:16:32;;;;;;;30.27;9.00;;;;;;;13.29;45.59;97722.22;5064201;28;20188;-79
2023/12/19 11:19:08;;;;;;;32.50;8.43;;;;;;;13.23;45.85;97704.28;5065154;28;20863;-76
2023/12/19 11:21:41;;;;;;;27.30;7.07;;;;;;;13.33;45.71;97726.38;5067182;28;20212;-75
2023/12/19 11:24:26;;;;;;;23.30;5.87;;;;;;;13.08;45.41;97680.66;5065519;28;20270;-76
2023/12/19 11:27:11;;;;;;;30.03;7.27;;;;;;;13.33;45.94;97726.38;5067169;28;20221;-74
2023/12/19 11:29:50;;;;;;;17.53;5.20;;;;;;;13.37;45.76;97712.31;5066709;28;20194;-77
2023/12/19 11:32:27;;;;;;;21.20;6.90;;;;;;;13.63;45.48;97717.97;5064831;28;20192;-77
2023/12/19 11:35:06;;;;;;;20.97;6.43;;;;;;;13.59;44.90;97716.44;5072095;28;20226;-74
2023/12/19 11:37:35;;;;;;;26.23;7.30;;;;;;;13.60;46.06;97702.50;5071172;28;20212;-76
2023/12/19 11:40:03;;;;;;;20.30;6.43;;;;;;;13.67;46.50;97709.13;5068081;28;20620;-76
2023/12/19 11:42:40;;;;;;;15.77;5.07;;;;;;;13.64;47.70;97704.03;5064866;28;20193;-77
2023/12/19 11:45:19;;;;;;;28.43;7.97;;;;;;;13.57;47.54;97702.66;5064019;28;20248;-78
2023/12/19 11:47:51;;;;;;;28.77;7.70;;;;;;;13.57;47.34;97699.19;5066592;28;20565;-76
2023/12/19 11:50:42;;;;;;;29.07;8.17;;;;;;;13.56;46.73;97694.94;5064849;28;20654;-76
2023/12/19 11:53:09;;;;;;;24.00;7.13;;;;;;;13.58;47.41;97701.72;5066542;28;20707;-77
2023/12/19 11:55:38;;;;;;;12.60;4.50;;;;;;;13.61;46.39;97693.78;5065937;28;20199;-77
2023/12/19 11:58:09;;;;;;;27.37;8.43;;;;;;;13.68;46.42;97692.56;5064252;28;20288;-75
2023/12/19 12:00:38;;;;;;;18.63;5.87;;;;;;;13.70;46.77;97688.13;5065682;28;20269;-76
2023/12/19 12:03:12;;;;;;;26.47;9.10;;;;;;;13.54;47.39;97686.34;5064792;28;20592;-78
2023/12/19 12:06:20;;;;;;;26.47;8.33;;;;;;;13.71;46.97;97688.97;5048650;28;20201;-78
2023/12/19 12:09:41;;;;;;;17.57;6.73;;;;;;;13.89;47.20;97682.88;5054993;28;20200;-78
2023/12/19 12:13:05;;;;;;;33.60;9.80;;;;;;;14.01;46.72;97677.09;5056206;28;20208;-77